createdAt,value
2023-01-11T00:03:32.281Z,12.90
2023-01-11T00:08:39.963Z,17.50
2023-01-11T00:13:47.571Z,17.20
2023-01-11T00:18:57.458Z,15.50
2023-01-11T00:24:06.574Z,12.80
2023-01-11T00:29:14.249Z,14.40
2023-01-11T00:34:22.539Z,16.00
2023-01-11T00:39:32.279Z,16.70
2023-01-11T00:44:57.526Z,11.70
2023-01-11T00:50:05.603Z,11.10
2023-01-11T00:55:13.539Z,16.30
2023-01-11T01:00:22.857Z,17.70
2023-01-11T01:05:31.122Z,17.10
2023-01-11T01:10:38.665Z,17.30
2023-01-11T01:15:46.703Z,15.80
2023-01-11T01:20:55.713Z,14.10
2023-01-11T01:26:06.308Z,16.30
2023-01-11T01:31:13.727Z,16.40
2023-01-11T01:36:21.330Z,15.60
2023-01-11T01:41:29.840Z,14.70
2023-01-11T01:46:38.999Z,14.50
2023-01-11T01:51:50.038Z,14.60
2023-01-11T01:57:01.590Z,16.40
2023-01-11T02:02:10.111Z,16.60
2023-01-11T02:07:22.425Z,19.90
2023-01-11T02:12:33.644Z,17.50
2023-01-11T02:17:41.198Z,18.60
2023-01-11T02:23:21.885Z,17.50
2023-01-11T02:28:34.948Z,19.60
2023-01-11T02:33:52.265Z,19.50
2023-01-11T02:39:11.285Z,15.00
2023-01-11T02:44:45.242Z,19.20
2023-01-11T02:49:59.279Z,18.50
2023-01-11T02:55:11.942Z,18.90
2023-01-11T03:03:53.996Z,18.60
2023-01-11T03:09:21.407Z,19.60
2023-01-11T03:14:45.065Z,22.60
2023-01-11T03:19:56.586Z,17.20
2023-01-11T03:25:15.275Z,18.20
2023-01-11T03:30:29.891Z,19.50
2023-01-11T03:35:44.315Z,19.90
2023-01-11T03:40:59.115Z,20.20
2023-01-11T03:59:58.350Z,21.10
2023-01-11T04:05:10.970Z,22.10
2023-01-11T04:10:19.704Z,21.50
2023-01-11T04:15:30.652Z,22.70
2023-01-11T04:20:40.511Z,22.30
2023-01-11T04:25:48.143Z,23.90
2023-01-11T04:31:07.135Z,23.20
2023-01-11T04:36:15.462Z,24.40
2023-01-11T04:41:40.058Z,24.10
2023-01-11T04:46:47.457Z,22.40
2023-01-11T04:51:55.786Z,25.30
2023-01-11T04:57:03.614Z,24.80
2023-01-11T05:02:11.000Z,23.00
2023-01-11T05:07:18.468Z,24.50
2023-01-11T05:12:26.429Z,22.90
2023-01-11T05:17:34.282Z,25.80
2023-01-11T05:22:41.856Z,24.10
2023-01-11T05:27:49.478Z,23.20
2023-01-11T05:32:58.996Z,26.60
2023-01-11T05:38:06.737Z,24.60
2023-01-11T05:43:14.897Z,25.30
2023-01-11T05:48:25.268Z,26.40
2023-01-11T05:53:33.149Z,28.30
2023-01-11T05:58:45.044Z,30.70
2023-01-11T06:03:52.772Z,29.10
2023-01-11T06:09:00.739Z,30.40
2023-01-11T06:14:09.217Z,34.80
2023-01-11T06:19:17.300Z,31.70
2023-01-11T06:24:26.425Z,32.80
2023-01-11T06:29:33.993Z,33.20
2023-01-11T06:34:41.319Z,37.40
2023-01-11T06:39:49.514Z,34.40
2023-01-11T06:44:57.935Z,34.70
2023-01-11T06:50:10.939Z,32.70
2023-01-11T06:55:18.733Z,34.40
2023-01-11T07:00:28.605Z,34.10
2023-01-11T07:05:37.392Z,35.90
2023-01-11T07:10:45.330Z,37.60
2023-01-11T07:15:55.240Z,35.80
2023-01-11T07:21:03.298Z,40.10
2023-01-11T07:26:10.674Z,37.10
2023-01-11T07:31:18.112Z,37.80
2023-01-11T07:36:27.572Z,37.60
2023-01-11T07:41:53.123Z,37.70
2023-01-11T07:47:01.117Z,39.70
2023-01-11T07:52:08.708Z,37.20
2023-01-11T07:57:16.054Z,37.10
2023-01-11T08:02:24.497Z,35.30
2023-01-11T08:07:32.367Z,36.60
2023-01-11T08:13:02.905Z,33.60
2023-01-11T08:18:11.755Z,36.90
2023-01-11T08:23:19.783Z,37.20
2023-01-11T08:28:27.690Z,34.60
2023-01-11T08:33:35.121Z,34.50
2023-01-11T08:38:42.947Z,37.30
2023-01-11T08:43:51.132Z,37.70
2023-01-11T08:49:01.055Z,37.00
2023-01-11T08:54:12.289Z,34.80
2023-01-11T08:59:22.475Z,33.90
2023-01-11T09:04:31.564Z,38.00
2023-01-11T09:09:39.737Z,37.70
2023-01-11T09:14:47.134Z,37.50
2023-01-11T09:19:54.968Z,27.70
2023-01-11T09:25:04.553Z,24.40
2023-01-11T09:30:15.301Z,21.30
2023-01-11T09:35:23.060Z,18.90
2023-01-11T09:40:42.377Z,23.30
2023-01-11T09:45:52.333Z,25.00
2023-01-11T09:51:02.600Z,23.90
2023-01-11T09:56:16.841Z,22.70
2023-01-11T10:01:34.246Z,24.30
2023-01-11T10:06:52.497Z,25.60
2023-01-11T10:18:43.105Z,18.00
2023-01-11T10:23:26.130Z,16.30
2023-01-11T10:28:49.886Z,16.40
2023-01-11T10:34:30.707Z,11.30
2023-01-11T10:40:06.561Z,16.00
2023-01-11T10:45:22.442Z,15.70
2023-01-11T10:50:38.925Z,14.90
2023-01-11T10:55:56.256Z,11.40
2023-01-11T11:03:12.591Z,12.60
2023-01-11T11:08:28.004Z,11.00
2023-01-11T11:13:48.195Z,10.90
2023-01-11T11:18:58.761Z,11.50
2023-01-11T11:24:15.975Z,13.00
2023-01-11T11:29:30.959Z,12.30
2023-01-11T11:34:38.108Z,12.30
2023-01-11T11:45:18.207Z,11.00
2023-01-11T11:50:44.729Z,11.90
2023-01-11T11:55:54.855Z,11.20
2023-01-11T12:01:02.739Z,10.00
2023-01-11T12:06:10.177Z,10.90
2023-01-11T12:11:25.108Z,12.10
2023-01-11T12:16:36.860Z,8.70
2023-01-11T12:21:44.448Z,11.30
2023-01-11T12:27:06.614Z,9.70
2023-01-11T12:32:32.490Z,8.80
2023-01-11T12:37:55.938Z,9.60
2023-01-11T12:43:25.751Z,9.30
2023-01-11T12:48:50.128Z,8.50
2023-01-11T12:54:20.108Z,10.20
2023-01-11T12:59:44.531Z,9.50
2023-01-11T13:05:05.424Z,12.00
2023-01-11T13:10:25.646Z,9.60
2023-01-11T13:15:44.045Z,9.20
2023-01-11T13:21:02.491Z,9.20
2023-01-11T13:26:22.127Z,10.20
2023-01-11T13:31:30.992Z,8.40
2023-01-11T13:36:45.819Z,9.80
2023-01-11T13:41:57.281Z,8.70
2023-01-11T13:47:10.530Z,8.80
2023-01-11T13:52:20.636Z,8.20
2023-01-11T13:57:36.529Z,8.60
2023-01-11T14:02:49.614Z,9.90
2023-01-11T14:08:16.469Z,9.60
2023-01-11T14:14:04.068Z,10.60
2023-01-11T14:19:21.812Z,10.90
2023-01-11T14:24:33.932Z,8.70
2023-01-11T14:30:06.959Z,9.90
2023-01-11T14:35:42.803Z,10.40
2023-01-11T14:41:04.471Z,10.70
2023-01-11T14:46:42.123Z,11.00
2023-01-11T14:51:58.093Z,10.90
2023-01-11T14:57:05.529Z,10.30
2023-01-11T15:02:27.469Z,12.00
2023-01-11T15:07:41.189Z,9.70
2023-01-11T15:12:48.396Z,11.40
2023-01-11T15:18:16.792Z,11.60
2023-01-11T15:23:25.420Z,11.90
2023-01-11T15:28:44.277Z,10.20
2023-01-11T15:33:55.801Z,11.30
2023-01-11T15:39:08.137Z,11.40
2023-01-11T15:44:33.960Z,10.40
2023-01-11T15:50:16.739Z,14.30
2023-01-11T15:55:56.829Z,15.20
2023-01-11T16:01:28.403Z,15.20
2023-01-11T16:06:44.628Z,16.60
2023-01-11T16:12:02.911Z,15.00
2023-01-11T16:17:14.870Z,17.00
2023-01-11T16:22:25.851Z,18.50
2023-01-11T16:27:36.645Z,21.10
2023-01-11T16:32:44.435Z,22.60
2023-01-11T16:37:58.143Z,24.30
2023-01-11T16:43:10.104Z,19.50
2023-01-11T16:48:19.954Z,23.50
2023-01-11T16:53:28.442Z,24.10
2023-01-11T16:58:37.231Z,23.40
2023-01-11T17:03:52.089Z,24.90
2023-01-11T17:09:10.943Z,22.40
2023-01-11T17:14:57.048Z,25.30
2023-01-11T17:20:04.944Z,24.10
2023-01-11T17:25:21.079Z,24.60
2023-01-11T17:30:30.111Z,23.70
2023-01-11T17:35:44.944Z,24.80
2023-01-11T17:40:52.946Z,29.00
2023-01-11T17:46:03.217Z,26.90
2023-01-11T17:51:10.385Z,25.00
2023-01-11T18:01:47.266Z,22.30
2023-01-11T18:06:56.871Z,27.80
2023-01-11T18:12:13.986Z,25.50
2023-01-11T18:17:42.146Z,27.60
2023-01-11T18:23:04.733Z,26.70
2023-01-11T18:28:29.523Z,26.70
2023-01-11T18:33:40.798Z,28.00
2023-01-11T18:38:47.794Z,24.30
2023-01-11T18:43:55.898Z,26.60
2023-01-11T18:49:03.020Z,27.30
2023-01-11T18:54:16.968Z,26.90
2023-01-11T18:59:24.132Z,26.00
2023-01-11T19:04:31.316Z,27.00
2023-01-11T19:09:38.744Z,29.60
2023-01-11T19:14:46.146Z,30.80
2023-01-11T19:19:53.285Z,27.30
2023-01-11T19:25:00.450Z,26.60
2023-01-11T19:35:15.373Z,24.70
2023-01-11T19:40:22.775Z,26.90
2023-01-11T19:45:30.418Z,28.00
2023-01-11T19:50:37.585Z,25.80
2023-01-11T20:03:12.164Z,23.00
2023-01-11T20:08:22.435Z,24.10
2023-01-11T20:13:30.483Z,27.70
2023-01-11T20:18:38.253Z,30.70
2023-01-11T20:23:45.862Z,30.90
2023-01-11T20:28:56.893Z,30.90
2023-01-11T20:34:07.014Z,31.50
2023-01-11T20:39:15.336Z,30.90
2023-01-11T20:44:28.074Z,28.70
2023-01-11T20:59:14.101Z,27.90
2023-01-11T21:04:22.766Z,29.30
2023-01-11T21:09:32.399Z,29.40
2023-01-11T21:14:40.163Z,30.50
2023-01-11T21:19:47.850Z,33.70
2023-01-11T21:24:55.965Z,33.60
2023-01-11T21:30:03.300Z,33.10
2023-01-11T21:35:12.014Z,31.40
2023-01-11T21:40:20.920Z,34.30
2023-01-11T21:45:29.396Z,19.80
2023-01-11T21:50:36.910Z,30.70
2023-01-11T21:55:44.391Z,39.20
2023-01-11T22:00:51.955Z,29.90
2023-01-11T22:06:05.144Z,41.30
2023-01-11T22:11:13.987Z,42.40
2023-01-11T22:16:22.210Z,45.60
2023-01-11T22:21:31.054Z,50.30
2023-01-11T22:26:39.431Z,53.70
2023-01-11T22:31:51.175Z,55.00
2023-01-11T22:36:59.201Z,60.00
2023-01-11T22:42:06.937Z,39.70
2023-01-11T22:47:17.081Z,44.20
2023-01-11T22:52:26.252Z,50.70
2023-01-11T22:57:34.781Z,65.90
2023-01-11T23:02:42.277Z,47.80
2023-01-11T23:07:50.002Z,37.20
2023-01-11T23:13:14.905Z,40.80
2023-01-11T23:18:22.925Z,44.30
2023-01-11T23:23:31.677Z,37.80
2023-01-11T23:28:39.620Z,42.10
2023-01-11T23:33:47.366Z,48.50
2023-01-11T23:38:55.906Z,49.90
2023-01-11T23:44:03.763Z,48.10
2023-01-11T23:49:14.757Z,47.90
2023-01-11T23:54:38.689Z,43.90
2023-01-11T23:59:46.768Z,39.40
